Huntsville Madison, AL

12:42 AM CDT on August 18, 2019 (GMT -0500)
Huntsville Madison

Weather History for KMDQ - July, 2019

Change the Weather History Date:

Sunday, July 21, 2019

  Actual Average (KHSV) Record (KHSV)
Temperature  
Mean Temperature 80 °F -  
Max Temperature 87 °F 90 °F 103 °F (1926)
Min Temperature 73 °F 69 °F 59 °F (1947)
Cooling Degree Days 15    
Growing Degree Days 30 (Base 50)    
Moisture  
Dew Point 73 °F    
Average Humidity 81    
Maximum Humidity 95    
Minimum Humidity 60    
Precipitation  
Precipitation 0.02 in - - ()
Sea Level Pressure  
Sea Level Pressure 30.03 in    
Wind  
Wind Speed 5 mph (South)    
Max Wind Speed 14 mph    
Max Gust Speed 21 mph    
Visibility 10 miles    
Events Rain , Thunderstorm    
Averages and records for this station are not official NWS values.
T = Trace of Precipitation, MM = Missing Value Source: NWS Daily Summary

Daily Weather History Graph

Daily Weather History Graph

Search for Another Location

Airport or City:

Astronomy

Jul. 21, 2019 Rise Set
Actual Time 5:47 AM CDT 7:57 PM CDT
Civil Twilight 5:19 AM CDT 8:25 PM CDT
Nautical Twilight 4:44 AM CDT 9:00 PM CDT
Astronomical Twilight 4:06 AM CDT 9:37 PM CDT
Moon 11:01 PM CDT (7/21) 9:59 AM CDT (7/21)
Length of Visible Light 15h 06m
Length of Day
14h 09m
Waning Gibbous, 80% of the Moon is Illuminated
Jul 21
Waning Gibbous
Jul 24
Last Quarter
Jul 31
New
Aug 7
First Quarter
Aug 15
Full

Hourly Weather History & Observations

Time (CDT) Temp. Heat Index Dew Point Humidity Pressure Visibility Wind Dir Wind Speed Gust Speed Precip Events Conditions
12:15 AM 75.2 °F - 72.9 °F 92% 30.00 in 10.0 mi SSE 3.5 mph - N/A   Clear
12:35 AM 75.6 °F - 72.9 °F 91% 30.00 in 10.0 mi South 4.6 mph - N/A   Clear
12:55 AM 75.9 °F - 72.7 °F 90% 30.01 in 10.0 mi SSE 4.6 mph - N/A   Clear
1:35 AM 76.1 °F - 72.7 °F 89% 30.02 in 10.0 mi South 6.9 mph - N/A   Clear
1:55 AM 75.9 °F - 72.7 °F 90% 30.03 in 10.0 mi SSW 4.6 mph - N/A   Mostly Cloudy
2:15 AM 75.2 °F - 72.7 °F 92% 30.03 in 10.0 mi SW 8.1 mph - N/A   Overcast
2:35 AM 75.2 °F - 72.5 °F 91% 30.04 in 10.0 mi SSW 4.6 mph - N/A   Overcast
3:15 AM 74.3 °F - 72.3 °F 94% 30.02 in 10.0 mi South 6.9 mph - N/A   Mostly Cloudy
3:35 AM 73.9 °F - 72.0 °F 93% 30.04 in 10.0 mi NNW 4.6 mph - N/A   Scattered Clouds
3:55 AM 73.9 °F - 72.1 °F 94% 30.04 in 10.0 mi South 4.6 mph - N/A   Mostly Cloudy
4:15 AM 73.6 °F - 72.0 °F 95% 30.05 in 10.0 mi Calm Calm - N/A   Scattered Clouds
4:35 AM 74.3 °F - 72.1 °F 93% 30.04 in 10.0 mi SSW 4.6 mph - N/A   Mostly Cloudy
4:55 AM 73.9 °F - 72.0 °F 93% 30.05 in 10.0 mi SSW 3.5 mph - N/A   Overcast
5:15 AM 74.3 °F - 72.0 °F 92% 30.04 in 10.0 mi SSE 4.6 mph - N/A   Overcast
5:35 AM 74.1 °F - 72.0 °F 93% 30.05 in 10.0 mi SSE 4.6 mph - N/A   Mostly Cloudy
5:55 AM 74.5 °F - 72.1 °F 92% 30.05 in 10.0 mi SSE 3.5 mph - N/A   Overcast
6:15 AM 74.3 °F - 72.1 °F 93% 30.05 in 10.0 mi SSE 3.5 mph - N/A   Overcast
6:35 AM 75.0 °F - 72.3 °F 91% 30.06 in 10.0 mi South 4.6 mph - N/A   Overcast
6:55 AM 75.2 °F - 71.6 °F 89% 30.06 in 10.0 mi South 6.9 mph - N/A   Overcast
7:15 AM 75.2 °F - 72.3 °F 91% 30.07 in 10.0 mi South 5.8 mph - N/A   Overcast
7:35 AM 75.4 °F - 72.5 °F 91% 30.07 in 10.0 mi South 5.8 mph - N/A   Overcast
7:55 AM 76.1 °F - 72.3 °F 88% 30.07 in 10.0 mi South 9.2 mph - N/A   Overcast
8:15 AM 76.8 °F - 72.3 °F 86% 30.07 in 10.0 mi South 8.1 mph - N/A   Overcast
8:35 AM 77.0 °F - 72.5 °F 86% 30.07 in 10.0 mi SW 6.9 mph - N/A   Overcast
8:55 AM 77.7 °F - 72.9 °F 85% 30.07 in 10.0 mi SSW 9.2 mph - N/A   Overcast
9:15 AM 79.5 °F - 73.6 °F 82% 30.07 in 10.0 mi SSW 10.4 mph - N/A   Overcast
9:35 AM 79.5 °F - 73.4 °F 81% 30.07 in 10.0 mi SSW 8.1 mph - N/A   Overcast
9:55 AM 80.8 °F 85.4 °F 72.9 °F 77% 30.07 in 10.0 mi South 9.2 mph - N/A   Overcast
10:15 AM 79.7 °F - 72.3 °F 78% 30.07 in 10.0 mi South 4.6 mph - N/A   Overcast
10:35 AM 80.6 °F 85.4 °F 73.4 °F 79% 30.08 in 10.0 mi South 5.8 mph - N/A   Overcast
10:55 AM 80.6 °F 85.2 °F 73.0 °F 78% 30.07 in 10.0 mi SSW 5.8 mph - N/A   Overcast
11:15 AM 81.1 °F 85.6 °F 72.1 °F 74% 30.07 in 10.0 mi South 4.6 mph - N/A   Mostly Cloudy
11:35 AM 82.4 °F 87.7 °F 72.5 °F 72% 30.07 in 10.0 mi South 8.1 mph - N/A   Scattered Clouds
11:55 AM 83.8 °F 89.8 °F 72.7 °F 69% 30.07 in 10.0 mi South 6.9 mph - N/A   Scattered Clouds
12:15 PM 83.8 °F 89.8 °F 72.7 °F 69% 30.06 in - WSW 3.5 mph - N/A   Mostly Cloudy
12:35 PM 84.2 °F 90.9 °F 73.6 °F 70% 30.06 in - West 5.8 mph - N/A   Overcast
12:55 PM 84.7 °F 91.4 °F 73.0 °F 68% 30.05 in 10.0 mi West 8.1 mph - N/A   Mostly Cloudy
1:15 PM 84.6 °F 91.4 °F 73.6 °F 69% 30.05 in 10.0 mi NW 4.6 mph - N/A   Mostly Cloudy
1:35 PM 84.9 °F 92.1 °F 73.8 °F 69% 30.04 in 10.0 mi Calm Calm - N/A   Mostly Cloudy
1:55 PM 87.6 °F 95.7 °F 73.6 °F 63% 30.03 in 5.0 mi SSW 5.8 mph - N/A   Haze
2:15 PM 86.4 °F 95.1 °F 74.5 °F 68% 30.02 in 10.0 mi SW 9.2 mph - N/A Thunderstorm Thunderstorm
2:35 PM 84.6 °F 91.4 °F 73.6 °F 69% 30.02 in 10.0 mi SSW 13.8 mph 20.7 mph N/A   Overcast
2:55 PM 80.2 °F 85.7 °F 75.7 °F 86% 30.02 in 5.0 mi South 10.4 mph - N/A Rain Heavy Rain
3:15 PM 82.6 °F 89.4 °F 74.8 °F 77% 30.01 in 10.0 mi SSE 8.1 mph - N/A   Scattered Clouds
3:35 PM 84.6 °F 93.9 °F 76.1 °F 76% 30.01 in 10.0 mi South 6.9 mph - 0.01 in   Mostly Cloudy
3:55 PM 86.5 °F 94.6 °F 73.9 °F 66% 30.01 in 10.0 mi SSW 6.9 mph - 0.01 in   Overcast
4:15 PM 86.5 °F 92.9 °F 72.0 °F 62% 30.00 in 10.0 mi South 9.2 mph - N/A   Scattered Clouds
4:35 PM 87.3 °F 94.0 °F 72.1 °F 61% 29.99 in 10.0 mi SSW 5.8 mph - N/A   Clear
4:55 PM 87.6 °F 94.3 °F 72.1 °F 60% 30.00 in 10.0 mi SW 3.5 mph - N/A   Clear
5:15 PM 86.9 °F 93.3 °F 72.0 °F 61% 29.99 in 10.0 mi SW 5.8 mph - N/A   Clear
5:35 PM 86.0 °F 92.6 °F 72.7 °F 64% 29.99 in 10.0 mi SSW 5.8 mph - N/A   Clear
5:55 PM 85.6 °F 92.2 °F 72.7 °F 65% 29.98 in 10.0 mi SSW 5.8 mph - N/A   Clear
6:15 PM 85.5 °F 91.8 °F 72.5 °F 65% 29.99 in 10.0 mi South 4.6 mph - N/A   Clear
6:35 PM 85.1 °F 92.6 °F 73.8 °F 69% 29.99 in 10.0 mi SSE 4.6 mph - N/A   Clear
6:55 PM 85.8 °F 93.0 °F 73.4 °F 66% 29.98 in 10.0 mi SSE 5.8 mph - N/A   Clear
7:15 PM 85.5 °F 92.2 °F 72.9 °F 66% 29.98 in 10.0 mi SSE 3.5 mph - N/A   Clear
7:35 PM 82.8 °F 89.8 °F 75.0 °F 77% 29.97 in 10.0 mi SSW 4.6 mph - N/A   Clear
7:55 PM 83.1 °F 89.8 °F 74.1 °F 74% 29.98 in 10.0 mi SSE 3.5 mph - N/A   Clear
8:15 PM 81.9 °F 88.0 °F 74.3 °F 78% 29.99 in 10.0 mi SSE 4.6 mph - N/A   Scattered Clouds
8:35 PM 81.1 °F 86.8 °F 74.5 °F 80% 29.99 in 10.0 mi SE 3.5 mph - N/A   Scattered Clouds
8:55 PM 80.8 °F 85.9 °F 74.1 °F 80% 30.00 in 10.0 mi SE 3.5 mph - N/A   Mostly Cloudy
9:15 PM 80.4 °F 85.5 °F 74.3 °F 82% 30.00 in 10.0 mi SE 3.5 mph - N/A   Mostly Cloudy
9:35 PM 79.5 °F - 74.7 °F 85% 30.00 in 10.0 mi SSE 4.6 mph - N/A   Mostly Cloudy
9:55 PM 80.2 °F 85.2 °F 74.7 °F 83% 30.01 in 10.0 mi SSW 12.7 mph 19.6 mph N/A Thunderstorm Thunderstorm
10:15 PM 75.6 °F - 72.9 °F 91% 30.02 in 4.0 mi West 9.2 mph - N/A Rain , Thunderstorm Heavy Thunderstorms and Rain
10:35 PM 73.6 °F - 71.1 °F 92% 30.02 in 5.0 mi SW 3.5 mph - N/A Rain Rain
10:55 PM 74.1 °F - 71.8 °F 92% 30.01 in 10.0 mi Calm Calm - N/A Rain Light Rain
11:15 PM 75.7 °F - 74.3 °F 95% 30.01 in 10.0 mi South 6.9 mph - N/A Rain Light Rain
11:35 PM 75.9 °F - 73.6 °F 92% 30.02 in 10.0 mi SSW 4.6 mph - N/A Rain Light Rain
11:55 PM 75.0 °F - 73.6 °F 95% 30.02 in 10.0 mi ESE 4.6 mph - 0.01 in   Overcast